This is the latest recevied weather packets stored in our database for station/object KN6KS. If no packets are shown the sender has not sent any weather packets the latest 10 day(s).
| Time | Temp. | Humidity | Pressure | Rain* | Wind** | Luminosity | Snow |
|---|---|---|---|---|---|---|---|
| 1777648646 | 20° C | 42% | 1014.1 hPa | 0 mm | - | 274 W/m² | - |
| 1777648342 | 19.44° C | 43% | 1014.2 hPa | 0 mm | - | 248 W/m² | - |
| 1777648038 | 20° C | 42% | 1014.1 hPa | 0 mm | - | 55 W/m² | - |
| 1777647734 | 19.44° C | 43% | 1014.1 hPa | 0 mm | - | 234 W/m² | - |
| 1777647431 | 18.89° C | 44% | 1014.2 hPa | 0 mm | - | 203 W/m² | - |
| 1777647129 | 18.89° C | 45% | 1014.1 hPa | 0 mm | - | 182 W/m² | - |
| 1777646216 | 18.89° C | 43% | 1013.9 hPa | 0 mm | - | 137 W/m² | - |
| 1777645914 | 19.44° C | 43% | 1013.9 hPa | 0 mm | - | 136 W/m² | - |
| 1777645611 | 17.78° C | 45% | 1013.8 hPa | 0 mm | - | 122 W/m² | - |
| 1777645307 | 18.33° C | 45% | 1014 hPa | 0 mm | - | 110 W/m² | - |
| 1777645003 | 17.78° C | 47% | 1013.6 hPa | 0 mm | - | 72 W/m² | - |
| 1777644701 | 16.67° C | 49% | 1013.6 hPa | 0 mm | - | 55 W/m² | - |
| 1777644396 | 17.22° C | 48% | 1013.5 hPa | 0 mm | - | 50 W/m² | - |
| 1777644093 | 16.67° C | 48% | 1013.4 hPa | 0 mm | - | 46 W/m² | - |
| 1777643790 | 16.11° C | 49% | 1013.4 hPa | 0 mm | - | 42 W/m² | - |
| 1777643488 | 15.56° C | 49% | 1013.2 hPa | 0 mm | - | 38 W/m² | - |
| 1777643184 | 15.56° C | 50% | 1013.3 hPa | 0 mm | - | 33 W/m² | - |
| 1777642881 | 16.67° C | 47% | 1013 hPa | 0 mm | - | 29 W/m² | - |
| 1777642577 | 16.67° C | 45% | 1013.1 hPa | 0 mm | - | 26 W/m² | - |
| 1777642274 | 16.11° C | 45% | 1012.8 hPa | 0 mm | - | 22 W/m² | - |
| 1777641971 | 16.11° C | 46% | 1013.2 hPa | 0 mm | - | 17 W/m² | - |
| 1777641667 | 15.56° C | 46% | 1012.8 hPa | 0 mm | - | 13 W/m² | - |
| 1777641362 | 15.56° C | 46% | 1012.8 hPa | 0 mm | - | 10 W/m² | - |
| 1777641057 | 15.56° C | 47% | 1012.5 hPa | 0 mm | - | 7 W/m² | - |
| 1777640754 | 15.56° C | 46% | 1012.6 hPa | 0 mm | - | 4 W/m² | - |
* Rain latest hour (hover to see other rain measurements)
** Current wind speed in m/s (hover to see current wind gust speed)